Terminal Aerodrome Forecast
Issued by NWS Jacksonville, FL

Home | Current Version | Previous Version | Text Only | Print | Product List | Glossary On
Versions: 1 2 3 4 5 6 7 8 9 10 11 12 13 14 15
000
FTUS42 KJAX 211720
TAFGNV
TAF
KGNV 211720Z 2118/2218 10008KT P6SM VCSH SCT025 BKN050 OVC100
     FM212100 07005KT 5SM -RA VCTS BKN025CB OVC050
     FM220200 VRB02KT 5SM BR SCT005 BKN100 OVC200
     FM220800 00000KT 1SM BR OVC004
     FM221400 03005KT P6SM SCT010 BKN025 OVC050=

USA.gov is the U.S. government's official web portal to all federal, state and local government web resources and services.